<?xml version="1.0" encoding="UTF-8" standalone="no" ?>
<gpx xmlns="http://www.topografix.com/GPX/1/1" xmlns:xsi="http://www.w3.org/2001/XMLSchema-instance" xsi:schemaLocation="http://www.topografix.com/GPX/1/1 http://www.topografix.com/GPX/1/1/gpx.xsd" version="1.1" creator="VisuGPX - https://www.visugpx.com">
  <metadata>
    <name>LUNDI PETIT PARCOURS LAC ST POINT</name>
  </metadata>
  <wpt lat="46.83061" lon="6.33309">
    <ele>850</ele>
    <name><![CDATA[Parking Anse de Chaon]]></name>
  </wpt>
  <wpt lat="46.81992" lon="6.326">
    <ele>854</ele>
    <name><![CDATA[La Côte Monceau]]></name>
  </wpt>
  <wpt lat="46.80932" lon="6.32399">
    <ele>898</ele>
    <name><![CDATA[Source Bleue]]></name>
  </wpt>
  <wpt lat="46.82909" lon="6.34228">
    <ele>983</ele>
    <name><![CDATA[Chapelle]]></name>
  </wpt>
  <wpt lat="46.8306" lon="6.3332">
    <ele>850</ele>
    <name><![CDATA[Parking Anse de Chaon]]></name>
  </wpt>
  <trk>
    <name><![CDATA[LUNDI PETIT PARCOURS LAC ST POINT]]></name>
    <trkseg>
      <trkpt lat="46.83061" lon="6.33309">
        <ele>850</ele>
        <time>2021-12-22T20:52:55+01:00</time>
      </trkpt>
      <trkpt lat="46.82961" lon="6.33214">
        <ele>850</ele>
        <time>2021-12-22T20:53:00+01:00</time>
      </trkpt>
      <trkpt lat="46.82914" lon="6.33337">
        <ele>859</ele>
        <time>2021-12-22T20:53:05+01:00</time>
      </trkpt>
      <trkpt lat="46.82897" lon="6.33385">
        <ele>861</ele>
        <time>2021-12-22T20:53:10+01:00</time>
      </trkpt>
      <trkpt lat="46.82854" lon="6.33429">
        <ele>867</ele>
        <time>2021-12-22T20:53:15+01:00</time>
      </trkpt>
      <trkpt lat="46.82825" lon="6.3345">
        <ele>870</ele>
        <time>2021-12-22T20:53:20+01:00</time>
      </trkpt>
      <trkpt lat="46.82783" lon="6.33449">
        <ele>878</ele>
        <time>2021-12-22T20:53:25+01:00</time>
      </trkpt>
      <trkpt lat="46.82766" lon="6.33492">
        <ele>883</ele>
        <time>2021-12-22T20:53:30+01:00</time>
      </trkpt>
      <trkpt lat="46.82757" lon="6.33445">
        <ele>884</ele>
        <time>2021-12-22T20:53:35+01:00</time>
      </trkpt>
      <trkpt lat="46.82734" lon="6.33356">
        <ele>885</ele>
        <time>2021-12-22T20:53:40+01:00</time>
      </trkpt>
      <trkpt lat="46.82723" lon="6.33332">
        <ele>885</ele>
        <time>2021-12-22T20:53:45+01:00</time>
      </trkpt>
      <trkpt lat="46.82737" lon="6.33319">
        <ele>883</ele>
        <time>2021-12-22T20:53:50+01:00</time>
      </trkpt>
      <trkpt lat="46.82766" lon="6.33263">
        <ele>875</ele>
        <time>2021-12-22T20:53:55+01:00</time>
      </trkpt>
      <trkpt lat="46.82772" lon="6.33222">
        <ele>870</ele>
        <time>2021-12-22T20:54:00+01:00</time>
      </trkpt>
      <trkpt lat="46.8277" lon="6.33184">
        <ele>863</ele>
        <time>2021-12-22T20:54:05+01:00</time>
      </trkpt>
      <trkpt lat="46.82741" lon="6.33143">
        <ele>856</ele>
        <time>2021-12-22T20:54:10+01:00</time>
      </trkpt>
      <trkpt lat="46.82685" lon="6.33079">
        <ele>851</ele>
        <time>2021-12-22T20:54:15+01:00</time>
      </trkpt>
      <trkpt lat="46.82614" lon="6.33">
        <ele>849</ele>
        <time>2021-12-22T20:54:20+01:00</time>
      </trkpt>
      <trkpt lat="46.8251" lon="6.32907">
        <ele>850</ele>
        <time>2021-12-22T20:54:25+01:00</time>
      </trkpt>
      <trkpt lat="46.82454" lon="6.32872">
        <ele>851</ele>
        <time>2021-12-22T20:54:30+01:00</time>
      </trkpt>
      <trkpt lat="46.82352" lon="6.32789">
        <ele>850</ele>
        <time>2021-12-22T20:54:35+01:00</time>
      </trkpt>
      <trkpt lat="46.82262" lon="6.32734">
        <ele>849</ele>
        <time>2021-12-22T20:54:40+01:00</time>
      </trkpt>
      <trkpt lat="46.82214" lon="6.32726">
        <ele>849</ele>
        <time>2021-12-22T20:54:45+01:00</time>
      </trkpt>
      <trkpt lat="46.8219" lon="6.32723">
        <ele>849</ele>
        <time>2021-12-22T20:54:50+01:00</time>
      </trkpt>
      <trkpt lat="46.82131" lon="6.32673">
        <ele>849</ele>
        <time>2021-12-22T20:54:55+01:00</time>
      </trkpt>
      <trkpt lat="46.82089" lon="6.32631">
        <ele>849</ele>
        <time>2021-12-22T20:55:00+01:00</time>
      </trkpt>
      <trkpt lat="46.81992" lon="6.326">
        <ele>854</ele>
        <time>2021-12-22T20:55:05+01:00</time>
      </trkpt>
      <trkpt lat="46.81938" lon="6.32569">
        <ele>859</ele>
        <time>2021-12-22T20:55:10+01:00</time>
      </trkpt>
      <trkpt lat="46.81888" lon="6.32517">
        <ele>861</ele>
        <time>2021-12-22T20:55:15+01:00</time>
      </trkpt>
      <trkpt lat="46.81841" lon="6.32452">
        <ele>865</ele>
        <time>2021-12-22T20:55:20+01:00</time>
      </trkpt>
      <trkpt lat="46.81898" lon="6.32314">
        <ele>849</ele>
        <time>2021-12-22T20:55:25+01:00</time>
      </trkpt>
      <trkpt lat="46.8188" lon="6.32286">
        <ele>849</ele>
        <time>2021-12-22T20:55:30+01:00</time>
      </trkpt>
      <trkpt lat="46.81837" lon="6.32251">
        <ele>849</ele>
        <time>2021-12-22T20:55:35+01:00</time>
      </trkpt>
      <trkpt lat="46.81816" lon="6.32253">
        <ele>850</ele>
        <time>2021-12-22T20:55:40+01:00</time>
      </trkpt>
      <trkpt lat="46.81791" lon="6.32272">
        <ele>853</ele>
        <time>2021-12-22T20:55:45+01:00</time>
      </trkpt>
      <trkpt lat="46.81738" lon="6.32207">
        <ele>852</ele>
        <time>2021-12-22T20:55:50+01:00</time>
      </trkpt>
      <trkpt lat="46.81696" lon="6.32117">
        <ele>851</ele>
        <time>2021-12-22T20:55:55+01:00</time>
      </trkpt>
      <trkpt lat="46.8167" lon="6.31968">
        <ele>849</ele>
        <time>2021-12-22T20:56:00+01:00</time>
      </trkpt>
      <trkpt lat="46.81654" lon="6.31903">
        <ele>850</ele>
        <time>2021-12-22T20:56:05+01:00</time>
      </trkpt>
      <trkpt lat="46.81576" lon="6.31798">
        <ele>852</ele>
        <time>2021-12-22T20:56:10+01:00</time>
      </trkpt>
      <trkpt lat="46.81532" lon="6.31749">
        <ele>853</ele>
        <time>2021-12-22T20:56:15+01:00</time>
      </trkpt>
      <trkpt lat="46.81462" lon="6.31795">
        <ele>857</ele>
        <time>2021-12-22T20:56:20+01:00</time>
      </trkpt>
      <trkpt lat="46.81406" lon="6.31758">
        <ele>858</ele>
        <time>2021-12-22T20:56:25+01:00</time>
      </trkpt>
      <trkpt lat="46.81412" lon="6.31797">
        <ele>858</ele>
        <time>2021-12-22T20:56:30+01:00</time>
      </trkpt>
      <trkpt lat="46.81359" lon="6.3184">
        <ele>859</ele>
        <time>2021-12-22T20:56:35+01:00</time>
      </trkpt>
      <trkpt lat="46.81342" lon="6.31898">
        <ele>859</ele>
        <time>2021-12-22T20:56:40+01:00</time>
      </trkpt>
      <trkpt lat="46.81313" lon="6.31906">
        <ele>860</ele>
        <time>2021-12-22T20:56:45+01:00</time>
      </trkpt>
      <trkpt lat="46.81247" lon="6.31896">
        <ele>876</ele>
        <time>2021-12-22T20:56:50+01:00</time>
      </trkpt>
      <trkpt lat="46.81219" lon="6.31918">
        <ele>878</ele>
        <time>2021-12-22T20:56:55+01:00</time>
      </trkpt>
      <trkpt lat="46.81206" lon="6.31947">
        <ele>878</ele>
        <time>2021-12-22T20:57:00+01:00</time>
      </trkpt>
      <trkpt lat="46.81177" lon="6.32107">
        <ele>876</ele>
        <time>2021-12-22T20:57:05+01:00</time>
      </trkpt>
      <trkpt lat="46.8102" lon="6.32125">
        <ele>887</ele>
        <time>2021-12-22T20:57:10+01:00</time>
      </trkpt>
      <trkpt lat="46.81077" lon="6.32183">
        <ele>878</ele>
        <time>2021-12-22T20:57:15+01:00</time>
      </trkpt>
      <trkpt lat="46.81088" lon="6.32207">
        <ele>880</ele>
        <time>2021-12-22T20:57:20+01:00</time>
      </trkpt>
      <trkpt lat="46.81039" lon="6.3226">
        <ele>882</ele>
        <time>2021-12-22T20:57:25+01:00</time>
      </trkpt>
      <trkpt lat="46.8097" lon="6.32308">
        <ele>887</ele>
        <time>2021-12-22T20:57:30+01:00</time>
      </trkpt>
      <trkpt lat="46.80932" lon="6.32399">
        <ele>898</ele>
        <time>2021-12-22T20:57:35+01:00</time>
      </trkpt>
      <trkpt lat="46.80902" lon="6.32433">
        <ele>902</ele>
        <time>2021-12-22T20:57:40+01:00</time>
      </trkpt>
      <trkpt lat="46.80938" lon="6.32409">
        <ele>899</ele>
        <time>2021-12-22T20:57:45+01:00</time>
      </trkpt>
      <trkpt lat="46.80971" lon="6.32417">
        <ele>904</ele>
        <time>2021-12-22T20:57:50+01:00</time>
      </trkpt>
      <trkpt lat="46.80949" lon="6.32468">
        <ele>914</ele>
        <time>2021-12-22T20:57:55+01:00</time>
      </trkpt>
      <trkpt lat="46.80962" lon="6.32506">
        <ele>926</ele>
        <time>2021-12-22T20:58:00+01:00</time>
      </trkpt>
      <trkpt lat="46.81028" lon="6.32567">
        <ele>935</ele>
        <time>2021-12-22T20:58:05+01:00</time>
      </trkpt>
      <trkpt lat="46.81087" lon="6.3264">
        <ele>938</ele>
        <time>2021-12-22T20:58:10+01:00</time>
      </trkpt>
      <trkpt lat="46.81122" lon="6.32666">
        <ele>935</ele>
        <time>2021-12-22T20:58:15+01:00</time>
      </trkpt>
      <trkpt lat="46.81207" lon="6.32801">
        <ele>945</ele>
        <time>2021-12-22T20:58:20+01:00</time>
      </trkpt>
      <trkpt lat="46.81272" lon="6.32882">
        <ele>951</ele>
        <time>2021-12-22T20:58:25+01:00</time>
      </trkpt>
      <trkpt lat="46.81297" lon="6.32907">
        <ele>952</ele>
        <time>2021-12-22T20:58:30+01:00</time>
      </trkpt>
      <trkpt lat="46.81337" lon="6.32964">
        <ele>955</ele>
        <time>2021-12-22T20:58:35+01:00</time>
      </trkpt>
      <trkpt lat="46.81391" lon="6.33012">
        <ele>955</ele>
        <time>2021-12-22T20:58:40+01:00</time>
      </trkpt>
      <trkpt lat="46.81455" lon="6.33097">
        <ele>959</ele>
        <time>2021-12-22T20:58:45+01:00</time>
      </trkpt>
      <trkpt lat="46.81547" lon="6.33189">
        <ele>954</ele>
        <time>2021-12-22T20:58:50+01:00</time>
      </trkpt>
      <trkpt lat="46.81633" lon="6.33246">
        <ele>946</ele>
        <time>2021-12-22T20:58:55+01:00</time>
      </trkpt>
      <trkpt lat="46.81702" lon="6.33276">
        <ele>944</ele>
        <time>2021-12-22T20:59:00+01:00</time>
      </trkpt>
      <trkpt lat="46.81755" lon="6.33328">
        <ele>944</ele>
        <time>2021-12-22T20:59:05+01:00</time>
      </trkpt>
      <trkpt lat="46.81807" lon="6.33401">
        <ele>950</ele>
        <time>2021-12-22T20:59:10+01:00</time>
      </trkpt>
      <trkpt lat="46.81908" lon="6.33497">
        <ele>955</ele>
        <time>2021-12-22T20:59:15+01:00</time>
      </trkpt>
      <trkpt lat="46.82007" lon="6.33577">
        <ele>967</ele>
        <time>2021-12-22T20:59:20+01:00</time>
      </trkpt>
      <trkpt lat="46.82157" lon="6.33624">
        <ele>973</ele>
        <time>2021-12-22T20:59:25+01:00</time>
      </trkpt>
      <trkpt lat="46.82301" lon="6.33694">
        <ele>979</ele>
        <time>2021-12-22T20:59:30+01:00</time>
      </trkpt>
      <trkpt lat="46.82378" lon="6.3378">
        <ele>981</ele>
        <time>2021-12-22T20:59:35+01:00</time>
      </trkpt>
      <trkpt lat="46.82416" lon="6.33825">
        <ele>981</ele>
        <time>2021-12-22T20:59:40+01:00</time>
      </trkpt>
      <trkpt lat="46.82464" lon="6.33865">
        <ele>975</ele>
        <time>2021-12-22T20:59:45+01:00</time>
      </trkpt>
      <trkpt lat="46.82495" lon="6.33941">
        <ele>979</ele>
        <time>2021-12-22T20:59:50+01:00</time>
      </trkpt>
      <trkpt lat="46.82512" lon="6.34012">
        <ele>981</ele>
        <time>2021-12-22T20:59:55+01:00</time>
      </trkpt>
      <trkpt lat="46.82511" lon="6.34073">
        <ele>987</ele>
        <time>2021-12-22T21:00:00+01:00</time>
      </trkpt>
      <trkpt lat="46.82517" lon="6.34105">
        <ele>989</ele>
        <time>2021-12-22T21:00:05+01:00</time>
      </trkpt>
      <trkpt lat="46.82565" lon="6.34138">
        <ele>989</ele>
        <time>2021-12-22T21:00:10+01:00</time>
      </trkpt>
      <trkpt lat="46.8256" lon="6.34132">
        <ele>988</ele>
        <time>2021-12-22T21:00:15+01:00</time>
      </trkpt>
      <trkpt lat="46.82559" lon="6.34105">
        <ele>985</ele>
        <time>2021-12-22T21:00:20+01:00</time>
      </trkpt>
      <trkpt lat="46.8256" lon="6.34152">
        <ele>990</ele>
        <time>2021-12-22T21:00:25+01:00</time>
      </trkpt>
      <trkpt lat="46.8258" lon="6.34162">
        <ele>990</ele>
        <time>2021-12-22T21:00:30+01:00</time>
      </trkpt>
      <trkpt lat="46.82615" lon="6.34147">
        <ele>986</ele>
        <time>2021-12-22T21:00:35+01:00</time>
      </trkpt>
      <trkpt lat="46.82651" lon="6.3415">
        <ele>987</ele>
        <time>2021-12-22T21:00:40+01:00</time>
      </trkpt>
      <trkpt lat="46.82678" lon="6.34159">
        <ele>988</ele>
        <time>2021-12-22T21:00:45+01:00</time>
      </trkpt>
      <trkpt lat="46.82771" lon="6.34206">
        <ele>987</ele>
        <time>2021-12-22T21:00:50+01:00</time>
      </trkpt>
      <trkpt lat="46.82796" lon="6.34152">
        <ele>985</ele>
        <time>2021-12-22T21:00:55+01:00</time>
      </trkpt>
      <trkpt lat="46.82827" lon="6.34109">
        <ele>983</ele>
        <time>2021-12-22T21:01:00+01:00</time>
      </trkpt>
      <trkpt lat="46.82865" lon="6.34143">
        <ele>982</ele>
        <time>2021-12-22T21:01:05+01:00</time>
      </trkpt>
      <trkpt lat="46.82889" lon="6.34173">
        <ele>983</ele>
        <time>2021-12-22T21:01:10+01:00</time>
      </trkpt>
      <trkpt lat="46.82909" lon="6.34228">
        <ele>983</ele>
        <time>2021-12-22T21:01:15+01:00</time>
      </trkpt>
      <trkpt lat="46.82875" lon="6.34158">
        <ele>983</ele>
        <time>2021-12-22T21:01:20+01:00</time>
      </trkpt>
      <trkpt lat="46.82827" lon="6.34109">
        <ele>983</ele>
        <time>2021-12-22T21:01:25+01:00</time>
      </trkpt>
      <trkpt lat="46.82772" lon="6.34203">
        <ele>987</ele>
        <time>2021-12-22T21:01:30+01:00</time>
      </trkpt>
      <trkpt lat="46.82636" lon="6.34147">
        <ele>987</ele>
        <time>2021-12-22T21:01:35+01:00</time>
      </trkpt>
      <trkpt lat="46.82567" lon="6.34162">
        <ele>991</ele>
        <time>2021-12-22T21:01:40+01:00</time>
      </trkpt>
      <trkpt lat="46.82544" lon="6.34055">
        <ele>981</ele>
        <time>2021-12-22T21:01:45+01:00</time>
      </trkpt>
      <trkpt lat="46.8256" lon="6.33858">
        <ele>961</ele>
        <time>2021-12-22T21:01:50+01:00</time>
      </trkpt>
      <trkpt lat="46.82576" lon="6.33787">
        <ele>953</ele>
        <time>2021-12-22T21:01:55+01:00</time>
      </trkpt>
      <trkpt lat="46.826" lon="6.33753">
        <ele>945</ele>
        <time>2021-12-22T21:02:00+01:00</time>
      </trkpt>
      <trkpt lat="46.82669" lon="6.33435">
        <ele>902</ele>
        <time>2021-12-22T21:02:05+01:00</time>
      </trkpt>
      <trkpt lat="46.82677" lon="6.33412">
        <ele>898</ele>
        <time>2021-12-22T21:02:10+01:00</time>
      </trkpt>
      <trkpt lat="46.8267" lon="6.33363">
        <ele>894</ele>
        <time>2021-12-22T21:02:15+01:00</time>
      </trkpt>
      <trkpt lat="46.82691" lon="6.33362">
        <ele>891</ele>
        <time>2021-12-22T21:02:20+01:00</time>
      </trkpt>
      <trkpt lat="46.82704" lon="6.33333">
        <ele>888</ele>
        <time>2021-12-22T21:02:25+01:00</time>
      </trkpt>
      <trkpt lat="46.82722" lon="6.33332">
        <ele>885</ele>
        <time>2021-12-22T21:02:30+01:00</time>
      </trkpt>
      <trkpt lat="46.8275" lon="6.334">
        <ele>884</ele>
        <time>2021-12-22T21:02:35+01:00</time>
      </trkpt>
      <trkpt lat="46.82775" lon="6.33501">
        <ele>880</ele>
        <time>2021-12-22T21:02:40+01:00</time>
      </trkpt>
      <trkpt lat="46.82783" lon="6.33452">
        <ele>878</ele>
        <time>2021-12-22T21:02:45+01:00</time>
      </trkpt>
      <trkpt lat="46.82811" lon="6.33452">
        <ele>872</ele>
        <time>2021-12-22T21:02:50+01:00</time>
      </trkpt>
      <trkpt lat="46.82858" lon="6.3343">
        <ele>866</ele>
        <time>2021-12-22T21:02:55+01:00</time>
      </trkpt>
      <trkpt lat="46.82906" lon="6.3336">
        <ele>860</ele>
        <time>2021-12-22T21:03:00+01:00</time>
      </trkpt>
      <trkpt lat="46.82941" lon="6.33271">
        <ele>856</ele>
        <time>2021-12-22T21:03:05+01:00</time>
      </trkpt>
      <trkpt lat="46.82968" lon="6.33223">
        <ele>850</ele>
        <time>2021-12-22T21:03:10+01:00</time>
      </trkpt>
      <trkpt lat="46.83008" lon="6.33251">
        <ele>850</ele>
        <time>2021-12-22T21:03:15+01:00</time>
      </trkpt>
      <trkpt lat="46.83047" lon="6.33296">
        <ele>850</ele>
        <time>2021-12-22T21:03:20+01:00</time>
      </trkpt>
      <trkpt lat="46.8306" lon="6.3332">
        <ele>850</ele>
        <time>2021-12-22T21:03:25+01:00</time>
      </trkpt>
    </trkseg>
  </trk>
</gpx>